createdAt,value
2023-04-17T00:01:39.165Z,7.10
2023-04-17T00:04:10.729Z,7.10
2023-04-17T00:06:38.462Z,7.00
2023-04-17T00:09:05.411Z,7.10
2023-04-17T00:11:32.273Z,7.10
2023-04-17T00:13:59.009Z,7.00
2023-04-17T00:16:27.224Z,7.10
2023-04-17T00:18:54.788Z,7.00
2023-04-17T00:21:22.269Z,7.00
2023-04-17T00:23:49.050Z,7.00
2023-04-17T00:26:16.436Z,7.00
2023-04-17T00:28:43.214Z,7.00
2023-04-17T00:31:09.996Z,7.00
2023-04-17T00:33:36.684Z,7.00
2023-04-17T00:36:03.520Z,6.90
2023-04-17T00:38:30.210Z,6.90
2023-04-17T00:40:57.005Z,6.90
2023-04-17T00:43:23.826Z,6.90
2023-04-17T00:45:51.134Z,7.00
2023-04-17T00:48:19.073Z,6.90
2023-04-17T00:50:47.374Z,6.90
2023-04-17T00:53:14.525Z,6.90
2023-04-17T00:55:43.120Z,6.90
2023-04-17T00:58:11.068Z,6.90
2023-04-17T01:00:37.986Z,6.90
2023-04-17T01:03:05.342Z,6.90
2023-04-17T01:05:32.309Z,6.90
2023-04-17T01:07:59.197Z,6.90
2023-04-17T01:10:25.940Z,6.90
2023-04-17T01:13:06.178Z,6.80
2023-04-17T01:15:33.388Z,6.80
2023-04-17T01:18:00.561Z,6.80
2023-04-17T01:20:31.367Z,6.80
2023-04-17T01:22:59.013Z,6.80
2023-04-17T01:25:27.444Z,6.80
2023-04-17T01:27:54.449Z,6.80
2023-04-17T01:30:21.492Z,6.80
2023-04-17T01:32:48.369Z,6.80
2023-04-17T01:35:15.330Z,6.80
2023-04-17T01:37:42.025Z,6.80
2023-04-17T01:40:09.673Z,6.80
2023-04-17T01:42:36.525Z,6.80
2023-04-17T01:45:03.706Z,6.80
2023-04-17T01:47:30.494Z,6.80
2023-04-17T01:49:57.227Z,6.80
2023-04-17T01:52:23.903Z,6.80
2023-04-17T01:54:50.636Z,6.80
2023-04-17T01:57:17.310Z,6.80
2023-04-17T01:59:44.067Z,6.80
2023-04-17T02:02:10.928Z,6.80
2023-04-17T02:04:37.835Z,6.80
2023-04-17T02:07:04.620Z,6.90
2023-04-17T02:09:31.349Z,6.80
2023-04-17T02:11:58.121Z,6.80
2023-04-17T02:14:25.303Z,6.80
2023-04-17T02:16:53.780Z,6.80
2023-04-17T02:19:21.466Z,6.80
2023-04-17T02:21:48.288Z,6.80
2023-04-17T02:24:15.066Z,6.80
2023-04-17T02:26:41.889Z,6.80
2023-04-17T02:29:08.820Z,6.80
2023-04-17T02:31:35.859Z,6.80
2023-04-17T02:34:02.906Z,6.80
2023-04-17T02:36:29.690Z,6.80
2023-04-17T02:38:56.400Z,6.80
2023-04-17T02:41:23.269Z,6.80
2023-04-17T02:43:50.285Z,6.80
2023-04-17T02:46:16.991Z,6.80
2023-04-17T02:48:43.714Z,6.80
2023-04-17T02:51:10.751Z,6.80
2023-04-17T02:53:37.490Z,6.80
2023-04-17T02:56:04.542Z,6.80
2023-04-17T02:58:31.799Z,6.80
2023-04-17T03:01:03.001Z,6.80
2023-04-17T03:03:35.015Z,6.80
2023-04-17T03:06:02.562Z,6.80
2023-04-17T03:08:32.535Z,6.80
2023-04-17T03:10:59.769Z,6.80
2023-04-17T03:13:26.528Z,6.80
2023-04-17T03:15:53.279Z,6.80
2023-04-17T03:18:20.089Z,6.70
2023-04-17T03:20:46.872Z,6.70
2023-04-17T03:23:13.618Z,6.70
2023-04-17T03:25:40.533Z,6.80
2023-04-17T03:28:07.313Z,6.70
2023-04-17T03:30:34.055Z,6.70
2023-04-17T03:33:00.900Z,6.70
2023-04-17T03:35:27.732Z,6.70
2023-04-17T03:37:54.693Z,6.70
2023-04-17T03:40:21.417Z,6.70
2023-04-17T03:42:48.431Z,6.70
2023-04-17T03:45:16.829Z,6.70
2023-04-17T03:47:43.743Z,6.70
2023-04-17T03:50:10.829Z,6.70
2023-04-17T03:52:37.598Z,6.70
2023-04-17T03:55:04.949Z,6.70
2023-04-17T03:57:31.749Z,6.70
2023-04-17T03:59:58.517Z,6.70
2023-04-17T04:02:25.566Z,6.70
2023-04-17T04:04:53.536Z,6.70
2023-04-17T04:07:21.483Z,6.70
2023-04-17T04:09:48.287Z,6.70
2023-04-17T04:12:15.835Z,6.70
2023-04-17T04:14:42.671Z,6.70
2023-04-17T04:17:09.407Z,6.70
2023-04-17T04:19:36.238Z,6.70
2023-04-17T04:22:06.719Z,6.70
2023-04-17T04:24:34.084Z,6.70
2023-04-17T04:27:05.170Z,6.70
2023-04-17T04:29:32.741Z,6.70
2023-04-17T04:32:00.229Z,6.70
2023-04-17T04:34:29.821Z,6.70
2023-04-17T04:36:59.373Z,6.70
2023-04-17T04:39:26.317Z,6.70
2023-04-17T04:41:53.195Z,6.70
2023-04-17T04:44:20.361Z,6.70
2023-04-17T04:46:47.508Z,6.70
2023-04-17T04:49:14.324Z,6.70
2023-04-17T04:51:41.116Z,6.70
2023-04-17T04:54:07.819Z,6.70
2023-04-17T04:56:34.648Z,6.70
2023-04-17T04:59:01.402Z,6.70
2023-04-17T05:01:29.819Z,6.70
2023-04-17T05:03:57.071Z,6.70
2023-04-17T05:06:24.006Z,6.70
2023-04-17T05:08:51.346Z,6.70
2023-04-17T05:11:18.091Z,6.80
2023-04-17T05:13:44.860Z,6.80
2023-04-17T05:16:11.611Z,6.80
2023-04-17T05:18:38.388Z,6.80
2023-04-17T05:21:05.588Z,6.80
2023-04-17T05:23:32.423Z,6.80
2023-04-17T05:25:59.139Z,6.80
2023-04-17T05:28:27.294Z,6.80
2023-04-17T05:30:54.088Z,6.80
2023-04-17T05:33:20.915Z,6.80
2023-04-17T05:35:47.846Z,6.80
2023-04-17T05:38:14.530Z,6.80
2023-04-17T05:40:41.306Z,6.80
2023-04-17T05:43:10.054Z,6.80
2023-04-17T05:45:37.129Z,6.90
2023-04-17T05:48:04.618Z,6.90
2023-04-17T05:50:31.629Z,6.90
2023-04-17T05:52:58.409Z,6.90
2023-04-17T05:55:25.262Z,6.90
2023-04-17T05:57:52.040Z,6.90
2023-04-17T06:00:22.672Z,6.90
2023-04-17T06:02:49.960Z,6.90
2023-04-17T06:05:18.414Z,6.90
2023-04-17T06:07:45.461Z,7.00
2023-04-17T06:10:12.795Z,6.90
2023-04-17T06:12:39.715Z,6.90
2023-04-17T06:15:09.184Z,6.90
2023-04-17T06:17:39.948Z,6.90
2023-04-17T06:20:10.415Z,6.90
2023-04-17T06:22:38.123Z,6.90
2023-04-17T06:25:05.440Z,7.00
2023-04-17T06:27:33.378Z,6.90
2023-04-17T06:30:02.133Z,7.00
2023-04-17T06:32:28.923Z,7.00
2023-04-17T06:34:59.590Z,7.10
2023-04-17T06:37:26.616Z,7.10
2023-04-17T06:39:53.307Z,7.10
2023-04-17T06:42:20.582Z,7.10
2023-04-17T06:44:47.297Z,7.20
2023-04-17T06:47:14.068Z,7.30
2023-04-17T06:49:40.760Z,7.40
2023-04-17T06:52:07.558Z,7.50
2023-04-17T06:54:34.330Z,7.60
2023-04-17T06:57:01.833Z,7.50
2023-04-17T06:59:28.587Z,7.50
2023-04-17T07:01:55.522Z,7.40
2023-04-17T07:04:22.497Z,7.40
2023-04-17T07:06:49.312Z,7.50
2023-04-17T07:09:16.480Z,7.50
2023-04-17T07:11:43.235Z,7.50
2023-04-17T07:14:11.659Z,7.50
2023-04-17T07:16:39.704Z,7.50
2023-04-17T07:19:06.506Z,7.60
2023-04-17T07:21:33.207Z,7.60
2023-04-17T07:24:00.099Z,7.70
2023-04-17T07:26:26.926Z,7.80
2023-04-17T07:28:53.716Z,7.80
2023-04-17T07:31:22.043Z,7.90
2023-04-17T07:33:49.239Z,7.90
2023-04-17T07:36:16.309Z,8.10
2023-04-17T07:38:43.150Z,8.20
2023-04-17T07:41:11.617Z,8.30
2023-04-17T07:43:38.608Z,8.50
2023-04-17T07:46:05.775Z,8.60
2023-04-17T07:48:32.541Z,8.70
2023-04-17T07:51:02.426Z,8.80
2023-04-17T07:53:29.804Z,8.80
2023-04-17T07:55:56.877Z,8.80
2023-04-17T07:58:24.082Z,8.80
2023-04-17T08:00:52.144Z,8.70
2023-04-17T08:03:22.340Z,8.60
2023-04-17T08:05:49.617Z,8.40
2023-04-17T08:08:16.415Z,8.40
2023-04-17T08:10:43.159Z,8.40
2023-04-17T08:13:10.037Z,8.50
2023-04-17T08:15:40.539Z,8.60
2023-04-17T08:18:09.679Z,8.60
2023-04-17T08:20:37.019Z,8.70
2023-04-17T08:23:05.147Z,8.90
2023-04-17T08:25:32.193Z,9.00
2023-04-17T08:27:58.966Z,9.00
2023-04-17T08:30:25.812Z,9.00
2023-04-17T08:32:52.761Z,9.00
2023-04-17T08:35:19.529Z,9.00
2023-04-17T08:37:49.331Z,8.90
2023-04-17T08:40:17.182Z,8.80
2023-04-17T08:42:44.503Z,8.80
2023-04-17T08:45:13.173Z,8.90
2023-04-17T08:47:41.748Z,9.10
2023-04-17T08:50:09.790Z,9.20
2023-04-17T08:52:47.593Z,9.40
2023-04-17T08:55:19.591Z,9.20
2023-04-17T08:58:01.490Z,9.40
2023-04-17T09:00:29.847Z,9.50
2023-04-17T09:02:58.827Z,9.70
2023-04-17T09:05:27.431Z,9.90
2023-04-17T09:08:14.549Z,9.90
2023-04-17T09:10:44.763Z,10.00
2023-04-17T09:13:14.738Z,9.80
2023-04-17T09:15:43.487Z,9.70
2023-04-17T09:18:31.085Z,9.90
2023-04-17T09:20:59.837Z,9.60
2023-04-17T09:23:28.230Z,9.60
2023-04-17T09:26:10.983Z,9.60
2023-04-17T09:28:41.316Z,9.60
2023-04-17T09:31:26.427Z,9.70
2023-04-17T09:34:05.032Z,9.50
2023-04-17T09:36:33.635Z,9.70
2023-04-17T09:39:03.844Z,9.80
2023-04-17T09:41:32.563Z,10.00
2023-04-17T09:44:02.074Z,9.80
2023-04-17T09:46:41.253Z,9.70
2023-04-17T09:49:36.451Z,10.00
2023-04-17T09:52:03.802Z,10.20
2023-04-17T09:54:37.755Z,10.30
2023-04-17T09:57:08.356Z,10.30
2023-04-17T09:59:46.690Z,10.30
2023-04-17T10:02:14.354Z,10.40
2023-04-17T10:04:42.646Z,10.30
2023-04-17T10:07:09.925Z,10.00
2023-04-17T10:09:37.137Z,9.90
2023-04-17T10:12:05.215Z,10.20
2023-04-17T10:14:34.102Z,10.30
2023-04-17T10:17:28.731Z,10.40
2023-04-17T10:19:55.936Z,10.40
2023-04-17T10:22:24.071Z,10.30
2023-04-17T10:24:52.972Z,10.40
2023-04-17T10:27:26.233Z,10.50
2023-04-17T10:30:04.176Z,10.60
2023-04-17T10:32:32.558Z,10.60
2023-04-17T10:35:22.402Z,10.40
2023-04-17T10:37:52.038Z,10.30
2023-04-17T10:40:24.111Z,10.20
2023-04-17T10:43:23.553Z,10.10
2023-04-17T10:46:03.865Z,10.10
2023-04-17T10:48:52.409Z,10.30
2023-04-17T10:51:26.880Z,10.40
2023-04-17T10:54:05.579Z,10.40
2023-04-17T10:56:39.083Z,10.40
2023-04-17T10:59:14.195Z,10.30
2023-04-17T11:02:01.488Z,10.40
2023-04-17T11:04:30.375Z,10.50
2023-04-17T11:06:57.972Z,10.70
2023-04-17T11:09:27.873Z,10.80
2023-04-17T11:11:55.339Z,10.90
2023-04-17T11:14:23.559Z,11.10
2023-04-17T11:16:51.748Z,11.20
2023-04-17T11:19:23.977Z,11.50
2023-04-17T11:21:58.422Z,11.60
2023-04-17T11:24:32.095Z,11.50
2023-04-17T11:27:01.068Z,11.60
2023-04-17T11:29:28.354Z,11.80
2023-04-17T11:31:57.328Z,11.60
2023-04-17T11:34:26.077Z,12.00
2023-04-17T11:36:54.778Z,12.10
2023-04-17T11:39:23.565Z,12.10
2023-04-17T11:41:52.075Z,12.10
2023-04-17T11:44:23.577Z,12.50
2023-04-17T11:46:51.827Z,12.50
2023-04-17T11:49:29.490Z,12.60
2023-04-17T11:51:58.940Z,12.20
2023-04-17T11:54:35.125Z,12.40
2023-04-17T11:57:04.611Z,12.60
2023-04-17T11:59:39.163Z,12.80
2023-04-17T12:02:08.245Z,12.60
2023-04-17T12:04:36.894Z,12.90
2023-04-17T12:07:05.628Z,13.10
2023-04-17T12:09:33.697Z,13.00
2023-04-17T12:12:02.715Z,12.80
2023-04-17T12:14:29.823Z,12.80
2023-04-17T12:16:56.637Z,12.80
2023-04-17T12:19:25.480Z,12.70
2023-04-17T12:21:52.602Z,12.90
2023-04-17T12:24:20.834Z,13.00
2023-04-17T12:26:48.331Z,13.30
2023-04-17T12:29:16.021Z,13.20
2023-04-17T12:31:43.497Z,13.20
2023-04-17T12:34:10.538Z,13.30
2023-04-17T12:36:37.980Z,13.60
2023-04-17T12:39:04.805Z,13.90
2023-04-17T12:41:31.945Z,14.50
2023-04-17T12:44:01.725Z,14.80
2023-04-17T12:46:28.732Z,15.10
2023-04-17T12:48:58.575Z,14.70
2023-04-17T12:51:29.312Z,14.70
2023-04-17T12:53:56.739Z,14.50
2023-04-17T12:56:23.951Z,14.60
2023-04-17T12:58:50.971Z,14.10
2023-04-17T13:01:17.689Z,14.50
2023-04-17T13:03:44.717Z,15.30
2023-04-17T13:06:12.280Z,15.60
2023-04-17T13:08:39.121Z,14.90
2023-04-17T13:11:06.076Z,14.40
2023-04-17T13:13:32.807Z,13.90
2023-04-17T13:15:59.567Z,13.60
2023-04-17T13:18:26.410Z,13.20
2023-04-17T13:20:53.155Z,13.20
2023-04-17T13:23:19.960Z,13.20
2023-04-17T13:25:48.739Z,12.80
2023-04-17T13:28:15.499Z,12.80
2023-04-17T13:30:42.278Z,12.60
2023-04-17T13:33:09.109Z,12.50
2023-04-17T13:35:35.973Z,12.40
2023-04-17T13:38:03.126Z,12.60
2023-04-17T13:40:31.196Z,12.70
2023-04-17T13:42:58.487Z,12.80
2023-04-17T13:45:25.309Z,13.00
2023-04-17T13:47:52.112Z,13.10
2023-04-17T13:50:18.990Z,13.30
2023-04-17T13:52:45.686Z,13.20
2023-04-17T13:55:14.690Z,13.20
2023-04-17T13:57:41.591Z,13.10
2023-04-17T14:00:09.012Z,13.30
2023-04-17T14:02:35.996Z,13.40
2023-04-17T14:05:03.166Z,13.60
2023-04-17T14:07:30.275Z,14.00
2023-04-17T14:09:57.043Z,14.00
2023-04-17T14:12:23.754Z,13.70
2023-04-17T14:14:50.636Z,13.30
2023-04-17T14:17:18.086Z,13.10
2023-04-17T14:19:44.901Z,12.40
2023-04-17T14:22:11.588Z,11.60
2023-04-17T14:24:38.325Z,11.10
2023-04-17T14:27:05.322Z,10.80
2023-04-17T14:29:32.013Z,10.40
2023-04-17T14:31:58.983Z,10.10
2023-04-17T14:34:25.813Z,9.90
2023-04-17T14:36:53.126Z,9.70
2023-04-17T14:39:19.984Z,9.60
2023-04-17T14:41:46.819Z,9.40
2023-04-17T14:44:13.785Z,9.30
2023-04-17T14:46:40.708Z,9.20
2023-04-17T14:49:07.972Z,8.90
2023-04-17T14:51:34.694Z,8.60
2023-04-17T14:54:01.460Z,8.40
2023-04-17T14:56:28.298Z,8.30
2023-04-17T14:58:55.234Z,8.40
2023-04-17T15:01:22.099Z,8.30
2023-04-17T15:03:50.052Z,8.40
2023-04-17T15:06:18.786Z,8.40
2023-04-17T15:08:46.200Z,8.50
2023-04-17T15:11:13.044Z,8.60
2023-04-17T15:13:40.516Z,8.60
2023-04-17T15:16:09.676Z,8.70
2023-04-17T15:18:36.749Z,8.70
2023-04-17T15:21:03.585Z,8.70
2023-04-17T15:23:30.396Z,8.70
2023-04-17T15:25:57.848Z,8.70
2023-04-17T15:28:25.411Z,8.60
2023-04-17T15:30:52.147Z,8.60
2023-04-17T15:33:19.589Z,8.60
2023-04-17T15:35:46.550Z,8.60
2023-04-17T15:38:13.340Z,8.50
2023-04-17T15:40:40.091Z,8.50
2023-04-17T15:43:06.882Z,8.50
2023-04-17T15:45:33.589Z,8.50
2023-04-17T15:48:01.618Z,8.50
2023-04-17T15:50:28.498Z,8.50
2023-04-17T15:52:55.206Z,8.40
2023-04-17T15:55:21.986Z,8.50
2023-04-17T15:57:48.769Z,8.50
2023-04-17T16:00:16.065Z,8.60
2023-04-17T16:02:43.000Z,8.70
2023-04-17T16:05:09.977Z,8.80
2023-04-17T16:07:36.688Z,9.00
2023-04-17T16:10:03.531Z,8.90
2023-04-17T16:12:30.283Z,8.80
2023-04-17T16:14:57.007Z,8.80
2023-04-17T16:17:23.825Z,8.90
2023-04-17T16:19:50.976Z,8.90
2023-04-17T16:22:18.972Z,8.90
2023-04-17T16:24:45.661Z,8.80
2023-04-17T16:27:12.506Z,8.70
2023-04-17T16:29:39.312Z,8.70
2023-04-17T16:32:06.115Z,8.60
2023-04-17T16:34:33.355Z,8.60
2023-04-17T16:37:00.236Z,8.60
2023-04-17T16:39:26.987Z,8.60
2023-04-17T16:41:53.817Z,8.50
2023-04-17T16:44:20.579Z,8.50
2023-04-17T16:47:05.525Z,8.50
2023-04-17T16:49:34.128Z,8.50
2023-04-17T16:52:00.841Z,8.40
2023-04-17T16:54:27.603Z,8.50
2023-04-17T16:56:54.322Z,8.30
2023-04-17T16:59:21.085Z,8.30
2023-04-17T17:01:49.655Z,8.30
2023-04-17T17:04:16.663Z,8.30
2023-04-17T17:06:43.510Z,8.30
2023-04-17T17:09:10.565Z,8.10
2023-04-17T17:11:37.418Z,8.10
2023-04-17T17:14:04.180Z,8.10
2023-04-17T17:16:30.966Z,8.30
2023-04-17T17:18:57.815Z,8.30
2023-04-17T17:21:24.605Z,8.20
2023-04-17T17:23:51.436Z,8.20
2023-04-17T17:26:18.232Z,8.20
2023-04-17T17:28:50.813Z,8.20
2023-04-17T17:31:17.773Z,8.10
2023-04-17T17:33:44.787Z,8.10
2023-04-17T17:36:11.978Z,8.10
2023-04-17T17:38:39.018Z,8.00
2023-04-17T17:41:06.018Z,7.90
2023-04-17T17:43:32.745Z,8.00
2023-04-17T17:45:59.581Z,8.00
2023-04-17T17:48:26.867Z,7.90
2023-04-17T17:50:54.758Z,7.90
2023-04-17T17:53:26.439Z,7.90
2023-04-17T17:55:55.116Z,7.80
2023-04-17T17:58:22.457Z,7.80
2023-04-17T18:00:50.133Z,7.80
2023-04-17T18:03:17.020Z,7.80
2023-04-17T18:05:44.623Z,7.80
2023-04-17T18:08:11.406Z,7.70
2023-04-17T18:10:38.285Z,7.70
2023-04-17T18:13:05.495Z,7.60
2023-04-17T18:15:32.476Z,7.70
2023-04-17T18:17:59.279Z,7.60
2023-04-17T18:20:26.177Z,7.50
2023-04-17T18:22:53.026Z,7.50
2023-04-17T18:25:19.956Z,7.50
2023-04-17T18:27:46.652Z,7.50
2023-04-17T18:30:14.190Z,7.50
2023-04-17T18:32:40.907Z,7.50
2023-04-17T18:35:08.068Z,7.40
2023-04-17T18:37:34.762Z,7.40
2023-04-17T18:40:05.175Z,7.30
2023-04-17T18:42:31.943Z,7.30
2023-04-17T18:44:58.750Z,7.30
2023-04-17T18:47:25.571Z,7.30
2023-04-17T18:49:53.217Z,7.40
2023-04-17T18:52:20.329Z,7.40
2023-04-17T18:54:47.319Z,7.40
2023-04-17T18:57:14.049Z,7.40
2023-04-17T18:59:42.724Z,7.40
2023-04-17T19:02:10.054Z,7.40
2023-04-17T19:04:36.926Z,7.30
2023-04-17T19:07:03.716Z,7.30
2023-04-17T19:09:30.647Z,7.30
2023-04-17T19:11:58.506Z,7.30
2023-04-17T19:14:25.406Z,7.20
2023-04-17T19:16:53.388Z,7.20
2023-04-17T19:19:20.436Z,7.20
2023-04-17T19:21:47.201Z,7.20
2023-04-17T19:24:13.987Z,7.20
2023-04-17T19:26:41.261Z,7.20
2023-04-17T19:29:08.087Z,7.10
2023-04-17T19:31:34.897Z,7.10
2023-04-17T19:34:01.709Z,7.10
2023-04-17T19:36:28.588Z,7.10
2023-04-17T19:38:59.090Z,7.00
2023-04-17T19:41:26.395Z,7.00
2023-04-17T19:43:55.910Z,7.10
2023-04-17T19:46:23.896Z,7.00
2023-04-17T19:48:52.262Z,7.10
2023-04-17T19:51:19.027Z,7.10
2023-04-17T19:53:47.487Z,7.00
2023-04-17T19:56:14.446Z,7.00
2023-04-17T19:58:41.761Z,6.90
2023-04-17T20:01:08.747Z,6.90
2023-04-17T20:03:38.280Z,6.90
2023-04-17T20:06:05.435Z,6.90
2023-04-17T20:08:32.277Z,6.90
2023-04-17T20:10:59.498Z,6.80
2023-04-17T20:13:27.814Z,6.80
2023-04-17T20:15:54.635Z,6.80
2023-04-17T20:18:21.562Z,6.80
2023-04-17T20:20:48.316Z,6.80
2023-04-17T20:23:15.184Z,6.80
2023-04-17T20:25:41.981Z,6.70
2023-04-17T20:28:09.634Z,6.70
2023-04-17T20:30:36.440Z,6.70
2023-04-17T20:33:03.493Z,6.60
2023-04-17T20:35:30.614Z,6.70
2023-04-17T20:37:57.442Z,6.60
2023-04-17T20:40:24.174Z,6.60
2023-04-17T20:42:51.044Z,6.60
2023-04-17T20:45:17.807Z,6.60
2023-04-17T20:50:15.222Z,6.50
2023-04-17T20:52:42.181Z,6.50
2023-04-17T20:55:09.264Z,6.50
2023-04-17T20:57:36.088Z,6.40
2023-04-17T21:00:03.809Z,6.40
2023-04-17T21:02:33.057Z,6.40
2023-04-17T21:05:00.127Z,6.40
2023-04-17T21:07:26.875Z,6.40
2023-04-17T21:09:53.558Z,6.40
2023-04-17T21:12:20.623Z,6.40
2023-04-17T21:14:47.390Z,6.40
2023-04-17T21:17:14.216Z,6.40
2023-04-17T21:19:41.282Z,6.40
2023-04-17T21:22:08.125Z,6.40
2023-04-17T21:24:35.569Z,6.40
2023-04-17T21:27:02.515Z,6.40
2023-04-17T21:29:29.802Z,6.30
2023-04-17T21:31:56.985Z,6.30
2023-04-17T21:34:24.590Z,6.30
2023-04-17T21:36:53.523Z,6.30
2023-04-17T21:39:21.002Z,6.30
2023-04-17T21:41:47.759Z,6.30
2023-04-17T21:44:15.581Z,6.30
2023-04-17T21:46:46.043Z,6.30
2023-04-17T21:49:13.123Z,6.30
2023-04-17T21:51:40.073Z,6.30
2023-04-17T21:54:07.933Z,6.40
2023-04-17T21:56:34.623Z,6.40
2023-04-17T21:59:01.524Z,6.30
2023-04-17T22:01:28.437Z,6.30
2023-04-17T22:03:55.360Z,6.30
2023-04-17T22:06:22.190Z,6.20
2023-04-17T22:08:49.023Z,6.20
2023-04-17T22:11:15.811Z,6.20
2023-04-17T22:13:42.807Z,6.20
2023-04-17T22:16:09.628Z,6.20
2023-04-17T22:18:36.390Z,6.10
2023-04-17T22:21:03.640Z,6.10
2023-04-17T22:23:30.556Z,6.10
2023-04-17T22:25:57.305Z,6.10
2023-04-17T22:28:24.130Z,6.10
2023-04-17T22:30:51.978Z,6.10
2023-04-17T22:33:18.812Z,6.10
2023-04-17T22:35:45.600Z,6.10
2023-04-17T22:38:12.464Z,6.10
2023-04-17T22:40:40.156Z,6.10
2023-04-17T22:43:07.033Z,6.00
2023-04-17T22:45:34.033Z,6.00
2023-04-17T22:48:01.106Z,5.90
2023-04-17T22:50:30.418Z,5.90
2023-04-17T22:52:57.282Z,5.90
2023-04-17T22:55:24.139Z,5.90
2023-04-17T22:57:50.952Z,5.90
2023-04-17T23:00:19.995Z,5.90
2023-04-17T23:02:47.389Z,5.90
2023-04-17T23:05:14.498Z,5.90
2023-04-17T23:07:41.388Z,5.90
2023-04-17T23:10:08.585Z,5.90
2023-04-17T23:12:35.301Z,5.90
2023-04-17T23:15:02.436Z,5.90
2023-04-17T23:17:29.248Z,5.90
2023-04-17T23:19:56.078Z,5.90
2023-04-17T23:22:23.118Z,5.90
2023-04-17T23:24:49.869Z,5.90
2023-04-17T23:27:16.731Z,5.90
2023-04-17T23:29:43.458Z,6.00
2023-04-17T23:32:10.240Z,5.90
2023-04-17T23:34:37.712Z,6.00
2023-04-17T23:37:04.523Z,6.00
2023-04-17T23:39:31.292Z,5.90
2023-04-17T23:41:59.010Z,5.90
2023-04-17T23:44:25.759Z,5.90
2023-04-17T23:46:52.503Z,5.90
2023-04-17T23:49:19.228Z,5.90
2023-04-17T23:51:45.959Z,5.80
2023-04-17T23:54:12.921Z,5.80
2023-04-17T23:56:39.945Z,5.80
2023-04-17T23:59:06.791Z,5.80
